Aeroporto :
LOGIN :

Iscrizione | Disclaimer

   EN    FR    IT 

 










Sommario :    VFR   VFR Marginale   IFR   IFR Intensivo   IFR Molto Intensivo
Visibilità : 
Base nubi : 
>= 8 km
>= 3000ft
5 / 8 km
1000 / 3000 ft
1500m / 5 km
500 / 1000 ft
800 / 1500m
200 / 500 ft
< 800m
< 200 ft
Simboli :   Temporali  Nebbia  Neve Forte  Precipitazioni Forti  Vento > 20 kt
SIGMETs :   Varie  Temporali  Ghiacco  Turbolenza  Onda orograficha  Ceneri Vulcaniche






- Altitudine del aeroporto : 55 ft
- Codice IATA : DSA


EGCN - Robin Hood Doncaster Sheffield

ULTIMO METAR :
  • 191350Z VRB02KT 9999 FEW015 SCT034 18/14 Q1015

METARs OBSOLETI :
  • 191320Z VRB02KT 9999 FEW015 SCT029 BKN035 17/14 Q1015
  • 191250Z VRB02KT 9999 FEW026 SCT032 BKN041 17/13 Q1015
  • 191220Z VRB01KT 9999 SCT024 BKN031 17/14 Q1015
  • 191150Z VRB03KT 9999 SCT026 BKN043 16/13 Q1015
  • 191120Z VRB02KT 9999 FEW011 SCT041 BKN049 16/14 Q1015

TAF TAF EGCN
Valido dal 19 a 12 ore il 20 a 12 ore UTC


191056Z 1912/2012 VRB02KT 9999 SCT035
PROB30
TEMPO 1912/1914 8000 -RA
BECMG 1920/1923 33010KT
PROB30
TEMPO 2002/2009 BKN014



MetMap, La meteo Aeronautica in un colpo d'occhio ! - Copyright ORBIFLY Dicembre 2007 - Disclaimer

ORBIFLY MET'MAP TEAM :

Programmazione e sviluppo : Alexandra Zaïnal
Concezione : Baudouin d'Aumeries
Aiuto per la programmazione : Marc-Olivier Méhu
Supporto tecnico e logistico : Manuel Goepfert
Aiuto per la traduzione : Arnaldo La Scala

Contatto : metmap@orbifly.com




FONTI E CREDITI :

   NOAA